sensor_id;sensor_type;location;lat;lon;timestamp;P1;durP1;ratioP1;P2;durP2;ratioP2
53010;SDS011;42803;55.762;38.084;2023-10-13T00:01:09;1.77;;;0.85;;
53010;SDS011;42803;55.762;38.084;2023-10-13T00:03:40;1.73;;;0.82;;
53010;SDS011;42803;55.762;38.084;2023-10-13T00:06:09;3.10;;;0.80;;
53010;SDS011;42803;55.762;38.084;2023-10-13T00:08:38;1.40;;;0.88;;
53010;SDS011;42803;55.762;38.084;2023-10-13T00:11:11;2.65;;;0.80;;
53010;SDS011;42803;55.762;38.084;2023-10-13T00:13:42;5.28;;;1.50;;
53010;SDS011;42803;55.762;38.084;2023-10-13T00:16:17;3.90;;;1.00;;
53010;SDS011;42803;55.762;38.084;2023-10-13T00:18:49;3.97;;;1.10;;
53010;SDS011;42803;55.762;38.084;2023-10-13T00:21:22;5.20;;;1.77;;
53010;SDS011;42803;55.762;38.084;2023-10-13T00:24:00;3.97;;;1.17;;
53010;SDS011;42803;55.762;38.084;2023-10-13T00:26:34;4.22;;;1.33;;
53010;SDS011;42803;55.762;38.084;2023-10-13T00:29:06;6.60;;;1.35;;
53010;SDS011;42803;55.762;38.084;2023-10-13T00:31:43;3.78;;;1.10;;
53010;SDS011;42803;55.762;38.084;2023-10-13T00:34:16;4.75;;;1.20;;
53010;SDS011;42803;55.762;38.084;2023-10-13T00:36:47;2.72;;;1.02;;
53010;SDS011;42803;55.762;38.084;2023-10-13T00:39:37;3.50;;;1.48;;
53010;SDS011;42803;55.762;38.084;2023-10-13T00:42:12;2.25;;;1.23;;
53010;SDS011;42803;55.762;38.084;2023-10-13T00:44:48;3.92;;;1.05;;
53010;SDS011;42803;55.762;38.084;2023-10-13T00:47:17;3.13;;;1.25;;
53010;SDS011;42803;55.762;38.084;2023-10-13T00:50:04;10.15;;;1.35;;
53010;SDS011;42803;55.762;38.084;2023-10-13T00:52:33;4.82;;;1.75;;
53010;SDS011;42803;55.762;38.084;2023-10-13T00:55:04;4.07;;;1.08;;
53010;SDS011;42803;55.762;38.084;2023-10-13T00:57:35;5.90;;;1.55;;
53010;SDS011;42803;55.762;38.084;2023-10-13T01:00:07;4.68;;;1.27;;
53010;SDS011;42803;55.762;38.084;2023-10-13T01:02:40;5.35;;;1.30;;
53010;SDS011;42803;55.762;38.084;2023-10-13T01:05:09;2.70;;;1.45;;
53010;SDS011;42803;55.762;38.084;2023-10-13T01:07:39;2.38;;;1.38;;
53010;SDS011;42803;55.762;38.084;2023-10-13T01:10:09;4.70;;;1.33;;
53010;SDS011;42803;55.762;38.084;2023-10-13T01:12:41;3.17;;;1.20;;
53010;SDS011;42803;55.762;38.084;2023-10-13T01:15:13;1.02;;;0.80;;
53010;SDS011;42803;55.762;38.084;2023-10-13T01:17:44;5.82;;;1.10;;
53010;SDS011;42803;55.762;38.084;2023-10-13T01:20:14;7.28;;;0.90;;
53010;SDS011;42803;55.762;38.084;2023-10-13T01:22:48;5.18;;;1.10;;
53010;SDS011;42803;55.762;38.084;2023-10-13T01:25:24;5.47;;;1.00;;
53010;SDS011;42803;55.762;38.084;2023-10-13T01:27:56;7.40;;;1.17;;
53010;SDS011;42803;55.762;38.084;2023-10-13T01:30:24;2.17;;;0.90;;
53010;SDS011;42803;55.762;38.084;2023-10-13T01:32:53;7.18;;;1.27;;
53010;SDS011;42803;55.762;38.084;2023-10-13T01:35:22;6.53;;;1.13;;
53010;SDS011;42803;55.762;38.084;2023-10-13T01:37:54;2.67;;;0.90;;
53010;SDS011;42803;55.762;38.084;2023-10-13T01:40:22;4.38;;;0.90;;
53010;SDS011;42803;55.762;38.084;2023-10-13T01:42:57;3.03;;;1.05;;
53010;SDS011;42803;55.762;38.084;2023-10-13T01:45:26;3.40;;;1.00;;
53010;SDS011;42803;55.762;38.084;2023-10-13T01:47:57;3.30;;;1.05;;
53010;SDS011;42803;55.762;38.084;2023-10-13T01:50:25;1.75;;;1.23;;
53010;SDS011;42803;55.762;38.084;2023-10-13T01:52:58;4.00;;;1.00;;
53010;SDS011;42803;55.762;38.084;2023-10-13T01:55:39;4.10;;;2.30;;
53010;SDS011;42803;55.762;38.084;2023-10-13T01:58:13;7.35;;;1.10;;
53010;SDS011;42803;55.762;38.084;2023-10-13T02:00:43;4.57;;;1.20;;
53010;SDS011;42803;55.762;38.084;2023-10-13T02:03:15;2.75;;;0.68;;
53010;SDS011;42803;55.762;38.084;2023-10-13T02:05:45;2.42;;;0.68;;
53010;SDS011;42803;55.762;38.084;2023-10-13T02:08:15;4.70;;;0.90;;
53010;SDS011;42803;55.762;38.084;2023-10-13T02:10:50;9.23;;;1.40;;
53010;SDS011;42803;55.762;38.084;2023-10-13T02:13:21;6.60;;;1.10;;
53010;SDS011;42803;55.762;38.084;2023-10-13T02:15:55;3.50;;;0.90;;
53010;SDS011;42803;55.762;38.084;2023-10-13T02:18:26;4.88;;;1.10;;
53010;SDS011;42803;55.762;38.084;2023-10-13T02:20:55;3.83;;;1.20;;
53010;SDS011;42803;55.762;38.084;2023-10-13T02:23:24;8.55;;;1.60;;
53010;SDS011;42803;55.762;38.084;2023-10-13T02:25:56;4.22;;;1.40;;
53010;SDS011;42803;55.762;38.084;2023-10-13T02:28:30;5.85;;;1.20;;
53010;SDS011;42803;55.762;38.084;2023-10-13T02:31:01;5.93;;;1.00;;
53010;SDS011;42803;55.762;38.084;2023-10-13T02:33:31;4.88;;;1.05;;
53010;SDS011;42803;55.762;38.084;2023-10-13T02:36:00;2.00;;;0.95;;
53010;SDS011;42803;55.762;38.084;2023-10-13T02:38:32;3.67;;;0.80;;
53010;SDS011;42803;55.762;38.084;2023-10-13T02:41:10;3.42;;;1.10;;
53010;SDS011;42803;55.762;38.084;2023-10-13T02:43:40;2.05;;;1.50;;
53010;SDS011;42803;55.762;38.084;2023-10-13T02:46:10;1.33;;;1.00;;
53010;SDS011;42803;55.762;38.084;2023-10-13T02:48:39;5.80;;;1.10;;
53010;SDS011;42803;55.762;38.084;2023-10-13T02:51:09;6.13;;;1.60;;
53010;SDS011;42803;55.762;38.084;2023-10-13T02:53:43;3.67;;;1.20;;
53010;SDS011;42803;55.762;38.084;2023-10-13T02:56:14;1.23;;;1.08;;
53010;SDS011;42803;55.762;38.084;2023-10-13T02:58:50;5.90;;;1.23;;
53010;SDS011;42803;55.762;38.084;2023-10-13T03:01:24;5.38;;;1.52;;
53010;SDS011;42803;55.762;38.084;2023-10-13T03:03:57;5.35;;;1.42;;
53010;SDS011;42803;55.762;38.084;2023-10-13T03:06:27;4.40;;;1.10;;
53010;SDS011;42803;55.762;38.084;2023-10-13T03:09:01;2.95;;;1.10;;
53010;SDS011;42803;55.762;38.084;2023-10-13T03:11:42;1.55;;;1.02;;
53010;SDS011;42803;55.762;38.084;2023-10-13T03:14:19;4.40;;;2.10;;
53010;SDS011;42803;55.762;38.084;2023-10-13T03:16:54;5.18;;;1.23;;
53010;SDS011;42803;55.762;38.084;2023-10-13T03:19:30;4.32;;;1.02;;
53010;SDS011;42803;55.762;38.084;2023-10-13T03:22:02;6.88;;;1.42;;
53010;SDS011;42803;55.762;38.084;2023-10-13T03:24:37;2.25;;;1.17;;
53010;SDS011;42803;55.762;38.084;2023-10-13T03:27:13;7.97;;;1.27;;
53010;SDS011;42803;55.762;38.084;2023-10-13T03:29:46;4.82;;;1.33;;
53010;SDS011;42803;55.762;38.084;2023-10-13T03:32:15;1.73;;;1.00;;
53010;SDS011;42803;55.762;38.084;2023-10-13T03:34:45;2.30;;;1.13;;
53010;SDS011;42803;55.762;38.084;2023-10-13T03:37:20;5.15;;;1.20;;
53010;SDS011;42803;55.762;38.084;2023-10-13T03:40:06;8.13;;;1.40;;
53010;SDS011;42803;55.762;38.084;2023-10-13T03:42:57;1.02;;;0.73;;
53010;SDS011;42803;55.762;38.084;2023-10-13T03:45:34;7.43;;;1.27;;
53010;SDS011;42803;55.762;38.084;2023-10-13T03:48:07;2.67;;;1.20;;
53010;SDS011;42803;55.762;38.084;2023-10-13T03:50:57;5.30;;;1.40;;
53010;SDS011;42803;55.762;38.084;2023-10-13T03:53:35;4.03;;;1.20;;
53010;SDS011;42803;55.762;38.084;2023-10-13T03:56:22;9.05;;;1.60;;
53010;SDS011;42803;55.762;38.084;2023-10-13T03:58:59;3.55;;;1.17;;
53010;SDS011;42803;55.762;38.084;2023-10-13T04:01:35;6.47;;;1.30;;
53010;SDS011;42803;55.762;38.084;2023-10-13T04:04:15;3.30;;;0.93;;
53010;SDS011;42803;55.762;38.084;2023-10-13T04:07:01;1.92;;;1.25;;
53010;SDS011;42803;55.762;38.084;2023-10-13T04:10:07;10.23;;;1.10;;
53010;SDS011;42803;55.762;38.084;2023-10-13T04:13:07;3.10;;;1.35;;
53010;SDS011;42803;55.762;38.084;2023-10-13T04:15:53;2.92;;;1.48;;
53010;SDS011;42803;55.762;38.084;2023-10-13T04:18:44;4.38;;;0.88;;
53010;SDS011;42803;55.762;38.084;2023-10-13T04:21:35;3.33;;;1.38;;
53010;SDS011;42803;55.762;38.084;2023-10-13T04:24:10;2.85;;;1.00;;
53010;SDS011;42803;55.762;38.084;2023-10-13T04:26:51;11.40;;;2.25;;
53010;SDS011;42803;55.762;38.084;2023-10-13T04:29:37;8.00;;;1.20;;
53010;SDS011;42803;55.762;38.084;2023-10-13T04:32:19;5.60;;;1.40;;
53010;SDS011;42803;55.762;38.084;2023-10-13T04:34:58;4.13;;;0.93;;
53010;SDS011;42803;55.762;38.084;2023-10-13T04:37:36;7.75;;;1.42;;
53010;SDS011;42803;55.762;38.084;2023-10-13T04:40:18;7.50;;;1.15;;
53010;SDS011;42803;55.762;38.084;2023-10-13T04:42:52;5.38;;;1.25;;
53010;SDS011;42803;55.762;38.084;2023-10-13T04:45:23;5.10;;;1.30;;
53010;SDS011;42803;55.762;38.084;2023-10-13T04:48:21;2.28;;;1.40;;
53010;SDS011;42803;55.762;38.084;2023-10-13T04:51:10;5.13;;;1.23;;
53010;SDS011;42803;55.762;38.084;2023-10-13T04:54:17;3.00;;;1.33;;
53010;SDS011;42803;55.762;38.084;2023-10-13T04:56:53;5.80;;;1.30;;
53010;SDS011;42803;55.762;38.084;2023-10-13T04:59:48;1.77;;;0.80;;
53010;SDS011;42803;55.762;38.084;2023-10-13T05:02:36;7.15;;;1.20;;
53010;SDS011;42803;55.762;38.084;2023-10-13T05:05:44;5.47;;;1.13;;
53010;SDS011;42803;55.762;38.084;2023-10-13T05:08:21;7.00;;;0.90;;
53010;SDS011;42803;55.762;38.084;2023-10-13T05:11:10;5.05;;;1.10;;
53010;SDS011;42803;55.762;38.084;2023-10-13T05:14:00;6.43;;;1.30;;
53010;SDS011;42803;55.762;38.084;2023-10-13T05:16:47;9.32;;;1.23;;
53010;SDS011;42803;55.762;38.084;2023-10-13T05:19:34;4.85;;;1.02;;
53010;SDS011;42803;55.762;38.084;2023-10-13T05:22:20;3.20;;;1.00;;
53010;SDS011;42803;55.762;38.084;2023-10-13T05:25:08;3.05;;;1.05;;
53010;SDS011;42803;55.762;38.084;2023-10-13T05:27:55;5.00;;;1.55;;
53010;SDS011;42803;55.762;38.084;2023-10-13T05:30:52;6.25;;;1.50;;
53010;SDS011;42803;55.762;38.084;2023-10-13T05:33:39;6.45;;;1.30;;
53010;SDS011;42803;55.762;38.084;2023-10-13T05:36:26;3.38;;;1.23;;
53010;SDS011;42803;55.762;38.084;2023-10-13T05:39:12;4.70;;;0.80;;
53010;SDS011;42803;55.762;38.084;2023-10-13T05:42:00;2.83;;;0.95;;
53010;SDS011;42803;55.762;38.084;2023-10-13T05:44:47;2.72;;;0.95;;
53010;SDS011;42803;55.762;38.084;2023-10-13T05:47:44;5.50;;;1.05;;
53010;SDS011;42803;55.762;38.084;2023-10-13T05:50:21;3.42;;;1.13;;
53010;SDS011;42803;55.762;38.084;2023-10-13T05:53:13;3.50;;;0.80;;
53010;SDS011;42803;55.762;38.084;2023-10-13T05:56:00;3.33;;;1.70;;
53010;SDS011;42803;55.762;38.084;2023-10-13T05:58:49;2.38;;;1.00;;
53010;SDS011;42803;55.762;38.084;2023-10-13T06:01:51;3.53;;;0.73;;
53010;SDS011;42803;55.762;38.084;2023-10-13T06:04:38;3.58;;;1.10;;
53010;SDS011;42803;55.762;38.084;2023-10-13T06:07:24;2.50;;;1.10;;
53010;SDS011;42803;55.762;38.084;2023-10-13T06:10:11;5.43;;;1.05;;
53010;SDS011;42803;55.762;38.084;2023-10-13T06:12:58;3.65;;;1.13;;
53010;SDS011;42803;55.762;38.084;2023-10-13T06:15:46;2.60;;;0.80;;
53010;SDS011;42803;55.762;38.084;2023-10-13T06:18:32;0.82;;;0.55;;
53010;SDS011;42803;55.762;38.084;2023-10-13T06:21:19;1.67;;;1.02;;
53010;SDS011;42803;55.762;38.084;2023-10-13T06:24:06;5.47;;;1.30;;
53010;SDS011;42803;55.762;38.084;2023-10-13T06:26:53;2.95;;;0.90;;
53010;SDS011;42803;55.762;38.084;2023-10-13T06:29:41;5.10;;;0.80;;
53010;SDS011;42803;55.762;38.084;2023-10-13T06:32:15;0.90;;;0.50;;
53010;SDS011;42803;55.762;38.084;2023-10-13T06:34:45;3.55;;;0.80;;
53010;SDS011;42803;55.762;38.084;2023-10-13T06:37:15;2.75;;;0.70;;
53010;SDS011;42803;55.762;38.084;2023-10-13T06:39:57;3.97;;;0.70;;
53010;SDS011;42803;55.762;38.084;2023-10-13T06:42:33;4.90;;;0.88;;
53010;SDS011;42803;55.762;38.084;2023-10-13T06:45:05;2.80;;;0.90;;
53010;SDS011;42803;55.762;38.084;2023-10-13T06:47:37;1.35;;;1.00;;
53010;SDS011;42803;55.762;38.084;2023-10-13T06:50:11;3.90;;;0.82;;
53010;SDS011;42803;55.762;38.084;2023-10-13T06:52:44;3.05;;;0.80;;
53010;SDS011;42803;55.762;38.084;2023-10-13T06:55:14;1.42;;;0.70;;
53010;SDS011;42803;55.762;38.084;2023-10-13T06:57:50;1.77;;;0.70;;
53010;SDS011;42803;55.762;38.084;2023-10-13T07:00:20;4.57;;;1.00;;
53010;SDS011;42803;55.762;38.084;2023-10-13T07:03:01;1.73;;;0.60;;
53010;SDS011;42803;55.762;38.084;2023-10-13T07:05:36;1.88;;;0.82;;
53010;SDS011;42803;55.762;38.084;2023-10-13T07:08:07;2.17;;;0.82;;
53010;SDS011;42803;55.762;38.084;2023-10-13T07:10:46;1.52;;;0.90;;
53010;SDS011;42803;55.762;38.084;2023-10-13T07:13:19;3.35;;;0.70;;
53010;SDS011;42803;55.762;38.084;2023-10-13T07:15:49;0.47;;;0.47;;
53010;SDS011;42803;55.762;38.084;2023-10-13T07:18:27;1.75;;;0.70;;
53010;SDS011;42803;55.762;38.084;2023-10-13T07:21:03;1.25;;;0.52;;
53010;SDS011;42803;55.762;38.084;2023-10-13T07:23:37;3.92;;;0.68;;
53010;SDS011;42803;55.762;38.084;2023-10-13T07:26:06;2.50;;;0.93;;
53010;SDS011;42803;55.762;38.084;2023-10-13T07:28:36;4.25;;;0.88;;
53010;SDS011;42803;55.762;38.084;2023-10-13T07:33:44;1.15;;;0.63;;
53010;SDS011;42803;55.762;38.084;2023-10-13T07:36:14;1.45;;;0.40;;
53010;SDS011;42803;55.762;38.084;2023-10-13T07:38:55;1.85;;;0.80;;
53010;SDS011;42803;55.762;38.084;2023-10-13T07:41:50;1.98;;;0.63;;
53010;SDS011;42803;55.762;38.084;2023-10-13T07:44:21;1.35;;;0.50;;
53010;SDS011;42803;55.762;38.084;2023-10-13T07:46:56;1.05;;;0.60;;
53010;SDS011;42803;55.762;38.084;2023-10-13T07:49:32;0.45;;;0.40;;
53010;SDS011;42803;55.762;38.084;2023-10-13T07:52:06;0.73;;;0.60;;
53010;SDS011;42803;55.762;38.084;2023-10-13T07:55:03;1.30;;;0.50;;
53010;SDS011;42803;55.762;38.084;2023-10-13T07:57:47;0.52;;;0.52;;
53010;SDS011;42803;55.762;38.084;2023-10-13T08:00:24;3.72;;;0.70;;
53010;SDS011;42803;55.762;38.084;2023-10-13T08:02:58;6.73;;;1.40;;
53010;SDS011;42803;55.762;38.084;2023-10-13T08:05:51;1.10;;;0.50;;
53010;SDS011;42803;55.762;38.084;2023-10-13T08:08:35;0.52;;;0.40;;
53010;SDS011;42803;55.762;38.084;2023-10-13T08:11:08;1.45;;;0.60;;
53010;SDS011;42803;55.762;38.084;2023-10-13T08:13:53;2.70;;;0.55;;
53010;SDS011;42803;55.762;38.084;2023-10-13T08:16:36;5.80;;;0.70;;
53010;SDS011;42803;55.762;38.084;2023-10-13T08:19:21;0.68;;;0.60;;
53010;SDS011;42803;55.762;38.084;2023-10-13T08:21:57;2.53;;;0.77;;
53010;SDS011;42803;55.762;38.084;2023-10-13T08:24:49;5.68;;;0.70;;
53010;SDS011;42803;55.762;38.084;2023-10-13T08:27:44;1.98;;;0.50;;
53010;SDS011;42803;55.762;38.084;2023-10-13T08:30:34;2.38;;;0.60;;
53010;SDS011;42803;55.762;38.084;2023-10-13T08:33:25;4.20;;;0.82;;
53010;SDS011;42803;55.762;38.084;2023-10-13T08:35:55;2.70;;;1.10;;
53010;SDS011;42803;55.762;38.084;2023-10-13T08:38:50;1.10;;;0.60;;
53010;SDS011;42803;55.762;38.084;2023-10-13T08:41:23;3.20;;;0.60;;
53010;SDS011;42803;55.762;38.084;2023-10-13T08:44:01;1.83;;;0.80;;
53010;SDS011;42803;55.762;38.084;2023-10-13T08:46:37;6.90;;;0.70;;
53010;SDS011;42803;55.762;38.084;2023-10-13T08:52:09;1.52;;;0.60;;
53010;SDS011;42803;55.762;38.084;2023-10-13T08:55:00;1.75;;;0.65;;
53010;SDS011;42803;55.762;38.084;2023-10-13T08:58:02;1.30;;;0.70;;
53010;SDS011;42803;55.762;38.084;2023-10-13T09:00:41;2.05;;;0.73;;
53010;SDS011;42803;55.762;38.084;2023-10-13T09:03:40;0.73;;;0.50;;
53010;SDS011;42803;55.762;38.084;2023-10-13T09:06:10;2.72;;;0.73;;
53010;SDS011;42803;55.762;38.084;2023-10-13T09:08:47;0.90;;;0.50;;
53010;SDS011;42803;55.762;38.084;2023-10-13T09:11:34;1.15;;;0.55;;
53010;SDS011;42803;55.762;38.084;2023-10-13T09:14:19;0.90;;;0.40;;
53010;SDS011;42803;55.762;38.084;2023-10-13T09:17:02;2.55;;;0.88;;
53010;SDS011;42803;55.762;38.084;2023-10-13T09:19:47;0.75;;;0.40;;
53010;SDS011;42803;55.762;38.084;2023-10-13T09:22:20;2.08;;;0.70;;
53010;SDS011;42803;55.762;38.084;2023-10-13T09:24:57;3.63;;;0.80;;
53010;SDS011;42803;55.762;38.084;2023-10-13T09:27:32;0.68;;;0.55;;
53010;SDS011;42803;55.762;38.084;2023-10-13T09:30:06;2.00;;;0.98;;
53010;SDS011;42803;55.762;38.084;2023-10-13T09:32:46;1.02;;;0.60;;
53010;SDS011;42803;55.762;38.084;2023-10-13T09:35:17;1.15;;;0.55;;
53010;SDS011;42803;55.762;38.084;2023-10-13T09:37:51;1.63;;;0.60;;
53010;SDS011;42803;55.762;38.084;2023-10-13T09:40:24;4.72;;;0.80;;
53010;SDS011;42803;55.762;38.084;2023-10-13T09:42:57;5.60;;;0.60;;
53010;SDS011;42803;55.762;38.084;2023-10-13T09:45:32;0.88;;;0.60;;
53010;SDS011;42803;55.762;38.084;2023-10-13T09:48:04;1.02;;;0.50;;
53010;SDS011;42803;55.762;38.084;2023-10-13T09:50:45;0.80;;;0.70;;
53010;SDS011;42803;55.762;38.084;2023-10-13T09:53:17;0.90;;;0.50;;
53010;SDS011;42803;55.762;38.084;2023-10-13T09:55:47;8.38;;;0.80;;
53010;SDS011;42803;55.762;38.084;2023-10-13T09:58:21;0.88;;;0.50;;
53010;SDS011;42803;55.762;38.084;2023-10-13T10:00:57;1.52;;;0.40;;
53010;SDS011;42803;55.762;38.084;2023-10-13T10:03:49;2.75;;;0.65;;
53010;SDS011;42803;55.762;38.084;2023-10-13T10:06:35;1.52;;;0.50;;
53010;SDS011;42803;55.762;38.084;2023-10-13T10:09:13;1.75;;;0.50;;
53010;SDS011;42803;55.762;38.084;2023-10-13T10:12:01;4.40;;;0.60;;
53010;SDS011;42803;55.762;38.084;2023-10-13T10:15:03;0.77;;;0.60;;
53010;SDS011;42803;55.762;38.084;2023-10-13T10:17:43;1.65;;;0.60;;
53010;SDS011;42803;55.762;38.084;2023-10-13T10:20:15;1.45;;;0.50;;
53010;SDS011;42803;55.762;38.084;2023-10-13T10:23:09;1.30;;;0.70;;
53010;SDS011;42803;55.762;38.084;2023-10-13T10:25:49;5.32;;;0.50;;
53010;SDS011;42803;55.762;38.084;2023-10-13T10:28:20;0.95;;;0.70;;
53010;SDS011;42803;55.762;38.084;2023-10-13T10:31:03;1.05;;;0.75;;
53010;SDS011;42803;55.762;38.084;2023-10-13T10:33:40;4.03;;;0.90;;
53010;SDS011;42803;55.762;38.084;2023-10-13T10:36:13;1.48;;;0.70;;
53010;SDS011;42803;55.762;38.084;2023-10-13T10:39:06;0.80;;;0.80;;
53010;SDS011;42803;55.762;38.084;2023-10-13T10:41:39;2.20;;;0.70;;
53010;SDS011;42803;55.762;38.084;2023-10-13T10:44:18;2.08;;;0.63;;
53010;SDS011;42803;55.762;38.084;2023-10-13T10:47:15;1.20;;;0.40;;
53010;SDS011;42803;55.762;38.084;2023-10-13T10:52:37;0.73;;;0.68;;
53010;SDS011;42803;55.762;38.084;2023-10-13T10:55:19;1.95;;;0.50;;
53010;SDS011;42803;55.762;38.084;2023-10-13T10:57:57;2.10;;;0.57;;
53010;SDS011;42803;55.762;38.084;2023-10-13T11:00:34;2.63;;;0.43;;
53010;SDS011;42803;55.762;38.084;2023-10-13T11:03:31;1.23;;;0.65;;
53010;SDS011;42803;55.762;38.084;2023-10-13T11:06:05;2.75;;;0.57;;
53010;SDS011;42803;55.762;38.084;2023-10-13T11:08:46;1.00;;;0.60;;
53010;SDS011;42803;55.762;38.084;2023-10-13T11:11:29;0.35;;;0.35;;
53010;SDS011;42803;55.762;38.084;2023-10-13T11:14:06;0.60;;;0.40;;
53010;SDS011;42803;55.762;38.084;2023-10-13T11:16:55;1.23;;;0.50;;
53010;SDS011;42803;55.762;38.084;2023-10-13T11:19:38;3.10;;;0.70;;
53010;SDS011;42803;55.762;38.084;2023-10-13T11:22:11;1.75;;;0.60;;
53010;SDS011;42803;55.762;38.084;2023-10-13T11:24:58;2.58;;;0.80;;
53010;SDS011;42803;55.762;38.084;2023-10-13T11:27:38;2.88;;;0.70;;
53010;SDS011;42803;55.762;38.084;2023-10-13T11:30:26;1.05;;;0.43;;
53010;SDS011;42803;55.762;38.084;2023-10-13T11:33:14;1.45;;;0.50;;
53010;SDS011;42803;55.762;38.084;2023-10-13T11:35:49;5.38;;;0.88;;
53010;SDS011;42803;55.762;38.084;2023-10-13T11:38:28;0.70;;;0.40;;
53010;SDS011;42803;55.762;38.084;2023-10-13T11:41:21;0.77;;;0.43;;
53010;SDS011;42803;55.762;38.084;2023-10-13T11:44:07;1.55;;;0.63;;
53010;SDS011;42803;55.762;38.084;2023-10-13T11:46:57;3.58;;;0.80;;
53010;SDS011;42803;55.762;38.084;2023-10-13T11:50:03;1.02;;;0.52;;
53010;SDS011;42803;55.762;38.084;2023-10-13T11:52:35;1.75;;;0.70;;
53010;SDS011;42803;55.762;38.084;2023-10-13T11:55:11;2.15;;;0.73;;
53010;SDS011;42803;55.762;38.084;2023-10-13T11:57:58;1.65;;;0.52;;
53010;SDS011;42803;55.762;38.084;2023-10-13T12:00:37;0.82;;;0.57;;
53010;SDS011;42803;55.762;38.084;2023-10-13T12:03:39;1.85;;;0.45;;
53010;SDS011;42803;55.762;38.084;2023-10-13T12:06:29;2.90;;;0.77;;
53010;SDS011;42803;55.762;38.084;2023-10-13T12:09:17;1.42;;;0.80;;
53010;SDS011;42803;55.762;38.084;2023-10-13T12:12:19;0.80;;;0.60;;
53010;SDS011;42803;55.762;38.084;2023-10-13T12:14:54;1.00;;;0.50;;
53010;SDS011;42803;55.762;38.084;2023-10-13T12:17:39;1.20;;;0.52;;
53010;SDS011;42803;55.762;38.084;2023-10-13T12:20:13;1.15;;;0.50;;
53010;SDS011;42803;55.762;38.084;2023-10-13T12:23:04;0.57;;;0.50;;
53010;SDS011;42803;55.762;38.084;2023-10-13T12:25:48;1.95;;;1.05;;
53010;SDS011;42803;55.762;38.084;2023-10-13T12:28:26;1.58;;;0.75;;
53010;SDS011;42803;55.762;38.084;2023-10-13T12:31:03;1.58;;;0.65;;
53010;SDS011;42803;55.762;38.084;2023-10-13T12:33:36;0.70;;;0.60;;
53010;SDS011;42803;55.762;38.084;2023-10-13T12:36:11;1.65;;;0.70;;
53010;SDS011;42803;55.762;38.084;2023-10-13T12:42:07;1.65;;;0.60;;
53010;SDS011;42803;55.762;38.084;2023-10-13T12:44:54;1.05;;;0.50;;
53010;SDS011;42803;55.762;38.084;2023-10-13T12:47:46;0.55;;;0.40;;
53010;SDS011;42803;55.762;38.084;2023-10-13T12:50:48;0.85;;;0.57;;
53010;SDS011;42803;55.762;38.084;2023-10-13T12:53:39;2.15;;;0.68;;
53010;SDS011;42803;55.762;38.084;2023-10-13T12:56:10;1.10;;;0.50;;
53010;SDS011;42803;55.762;38.084;2023-10-13T12:58:46;1.30;;;0.65;;
53010;SDS011;42803;55.762;38.084;2023-10-13T13:01:23;0.93;;;0.68;;
53010;SDS011;42803;55.762;38.084;2023-10-13T13:04:03;1.45;;;0.70;;
53010;SDS011;42803;55.762;38.084;2023-10-13T13:06:45;0.65;;;0.60;;
53010;SDS011;42803;55.762;38.084;2023-10-13T13:09:28;1.63;;;0.50;;
53010;SDS011;42803;55.762;38.084;2023-10-13T13:12:05;0.45;;;0.40;;
53010;SDS011;42803;55.762;38.084;2023-10-13T13:14:38;1.55;;;0.60;;
53010;SDS011;42803;55.762;38.084;2023-10-13T13:17:15;2.45;;;0.57;;
53010;SDS011;42803;55.762;38.084;2023-10-13T13:19:49;1.52;;;0.68;;
53010;SDS011;42803;55.762;38.084;2023-10-13T13:22:22;1.75;;;0.70;;
53010;SDS011;42803;55.762;38.084;2023-10-13T13:24:54;0.93;;;0.65;;
53010;SDS011;42803;55.762;38.084;2023-10-13T13:27:30;1.42;;;0.77;;
53010;SDS011;42803;55.762;38.084;2023-10-13T13:30:10;1.33;;;0.60;;
53010;SDS011;42803;55.762;38.084;2023-10-13T13:32:58;2.83;;;1.10;;
53010;SDS011;42803;55.762;38.084;2023-10-13T13:35:49;3.72;;;1.30;;
53010;SDS011;42803;55.762;38.084;2023-10-13T13:38:23;1.95;;;0.80;;
53010;SDS011;42803;55.762;38.084;2023-10-13T13:40:58;1.50;;;1.00;;
53010;SDS011;42803;55.762;38.084;2023-10-13T13:43:38;1.00;;;0.60;;
53010;SDS011;42803;55.762;38.084;2023-10-13T13:46:25;1.10;;;1.00;;
53010;SDS011;42803;55.762;38.084;2023-10-13T13:49:04;6.53;;;1.00;;
53010;SDS011;42803;55.762;38.084;2023-10-13T13:51:48;1.65;;;0.90;;
53010;SDS011;42803;55.762;38.084;2023-10-13T13:54:29;1.55;;;1.13;;
53010;SDS011;42803;55.762;38.084;2023-10-13T13:57:01;3.13;;;0.85;;
53010;SDS011;42803;55.762;38.084;2023-10-13T13:59:37;3.92;;;1.02;;
53010;SDS011;42803;55.762;38.084;2023-10-13T14:02:15;3.90;;;1.38;;
53010;SDS011;42803;55.762;38.084;2023-10-13T14:04:56;3.08;;;0.88;;
53010;SDS011;42803;55.762;38.084;2023-10-13T14:07:35;2.47;;;1.02;;
53010;SDS011;42803;55.762;38.084;2023-10-13T14:10:15;3.88;;;1.25;;
53010;SDS011;42803;55.762;38.084;2023-10-13T14:13:06;2.42;;;1.35;;
53010;SDS011;42803;55.762;38.084;2023-10-13T14:15:44;1.50;;;1.17;;
53010;SDS011;42803;55.762;38.084;2023-10-13T14:18:28;4.45;;;1.25;;
53010;SDS011;42803;55.762;38.084;2023-10-13T14:21:02;5.65;;;1.85;;
53010;SDS011;42803;55.762;38.084;2023-10-13T14:23:46;3.67;;;1.02;;
53010;SDS011;42803;55.762;38.084;2023-10-13T14:26:17;1.95;;;0.93;;
53010;SDS011;42803;55.762;38.084;2023-10-13T14:28:51;1.08;;;0.70;;
53010;SDS011;42803;55.762;38.084;2023-10-13T14:31:32;3.35;;;1.05;;
53010;SDS011;42803;55.762;38.084;2023-10-13T14:34:06;4.53;;;1.13;;
53010;SDS011;42803;55.762;38.084;2023-10-13T14:39:18;3.95;;;0.95;;
53010;SDS011;42803;55.762;38.084;2023-10-13T14:41:49;2.25;;;1.23;;
53010;SDS011;42803;55.762;38.084;2023-10-13T14:44:20;1.27;;;0.88;;
53010;SDS011;42803;55.762;38.084;2023-10-13T14:46:59;4.10;;;1.02;;
53010;SDS011;42803;55.762;38.084;2023-10-13T14:49:45;4.47;;;1.55;;
53010;SDS011;42803;55.762;38.084;2023-10-13T14:52:22;2.63;;;1.10;;
53010;SDS011;42803;55.762;38.084;2023-10-13T14:55:00;3.60;;;1.48;;
53010;SDS011;42803;55.762;38.084;2023-10-13T14:57:44;3.13;;;1.40;;
53010;SDS011;42803;55.762;38.084;2023-10-13T15:00:21;5.22;;;1.50;;
53010;SDS011;42803;55.762;38.084;2023-10-13T15:03:03;3.85;;;1.10;;
53010;SDS011;42803;55.762;38.084;2023-10-13T15:05:39;1.40;;;1.00;;
53010;SDS011;42803;55.762;38.084;2023-10-13T15:08:19;3.05;;;1.25;;
53010;SDS011;42803;55.762;38.084;2023-10-13T15:10:54;5.88;;;1.50;;
53010;SDS011;42803;55.762;38.084;2023-10-13T15:13:34;3.55;;;1.17;;
53010;SDS011;42803;55.762;38.084;2023-10-13T15:16:17;5.65;;;1.13;;
53010;SDS011;42803;55.762;38.084;2023-10-13T15:18:54;2.25;;;1.13;;
53010;SDS011;42803;55.762;38.084;2023-10-13T15:21:26;3.95;;;1.10;;
53010;SDS011;42803;55.762;38.084;2023-10-13T15:24:12;2.22;;;1.00;;
53010;SDS011;42803;55.762;38.084;2023-10-13T15:26:57;3.20;;;1.40;;
53010;SDS011;42803;55.762;38.084;2023-10-13T15:29:46;3.58;;;1.42;;
53010;SDS011;42803;55.762;38.084;2023-10-13T15:32:28;2.28;;;1.00;;
53010;SDS011;42803;55.762;38.084;2023-10-13T15:35:23;3.95;;;1.33;;
53010;SDS011;42803;55.762;38.084;2023-10-13T15:38:04;3.17;;;1.88;;
53010;SDS011;42803;55.762;38.084;2023-10-13T15:40:40;5.47;;;1.33;;
53010;SDS011;42803;55.762;38.084;2023-10-13T15:43:27;3.83;;;1.52;;
53010;SDS011;42803;55.762;38.084;2023-10-13T15:46:02;1.98;;;1.17;;
53010;SDS011;42803;55.762;38.084;2023-10-13T15:49:10;1.98;;;1.10;;
53010;SDS011;42803;55.762;38.084;2023-10-13T15:51:46;3.60;;;1.20;;
53010;SDS011;42803;55.762;38.084;2023-10-13T15:54:36;2.90;;;1.33;;
53010;SDS011;42803;55.762;38.084;2023-10-13T15:57:21;2.58;;;1.10;;
53010;SDS011;42803;55.762;38.084;2023-10-13T15:59:57;4.90;;;1.20;;